Anderson, Texas
Current Conditions -  °F | °C
As of 1:53 AM on Saturday 25 Oct 2014 (Local Time) from KCLL Reporting Station
Clear Clear  
Wind Chill: 65°   Ceiling: Unl
Heat Index: 65°   Visibility: 10mi
Dew Point: 56°   Wind: 3mph
Humidity: 73%   Direction: 160°SSE
Pressure: 30.13"   Gusts: NA
Location:  30.49°N, 95.99°W
Report Text: KCLL 250653Z AUTO 16003KT 10SM CLR 18/13 A3013 RMK AO2 SLP199 T01830133
Loading
Personal Weather Stations






























Interactive Weather Map
Tropical Storm Tracking
New forecast layout! Learn more

10-Day Weather Forecast

Advertisements
Track Severe Weather on mobile